sensor_id;sensor_type;location;lat;lon;timestamp;pressure;altitude;pressure_sealevel;temperature;humidity
61571;BME280;47463;49.884;10.010;2023-01-29T00:00:01;103309.99999999999;;;-2.2;78
61571;BME280;47463;49.884;10.010;2023-01-29T00:05:01;103330;;;-2.3;78
61571;BME280;47463;49.884;10.010;2023-01-29T00:10:01;103330;;;-2.3;77
61571;BME280;47463;49.884;10.010;2023-01-29T00:15:01;103330;;;-2.3;77
61571;BME280;47463;49.884;10.010;2023-01-29T00:20:01;103340.00000000001;;;-2.3;77
61571;BME280;47463;49.884;10.010;2023-01-29T00:25:01;103340.00000000001;;;-2.3;77
61571;BME280;47463;49.884;10.010;2023-01-29T00:30:01;103340.00000000001;;;-2.3;77
61571;BME280;47463;49.884;10.010;2023-01-29T00:35:01;103330;;;-2.4;77
61571;BME280;47463;49.884;10.010;2023-01-29T00:40:01;103320;;;-2.4;78
61571;BME280;47463;49.884;10.010;2023-01-29T00:45:01;103309.99999999999;;;-2.4;78
61571;BME280;47463;49.884;10.010;2023-01-29T00:50:01;103309.99999999999;;;-2.4;78
61571;BME280;47463;49.884;10.010;2023-01-29T00:55:01;103320;;;-2.5;77
61571;BME280;47463;49.884;10.010;2023-01-29T01:00:01;103309.99999999999;;;-2.5;78
61571;BME280;47463;49.884;10.010;2023-01-29T01:05:01;103309.99999999999;;;-2.5;77
61571;BME280;47463;49.884;10.010;2023-01-29T01:10:01;103309.99999999999;;;-2.5;78
61571;BME280;47463;49.884;10.010;2023-01-29T01:15:01;103309.99999999999;;;-2.5;77
61571;BME280;47463;49.884;10.010;2023-01-29T01:20:01;103300;;;-2.6;77
61571;BME280;47463;49.884;10.010;2023-01-29T01:25:01;103309.99999999999;;;-2.6;77
61571;BME280;47463;49.884;10.010;2023-01-29T01:30:01;103309.99999999999;;;-2.6;78
61571;BME280;47463;49.884;10.010;2023-01-29T01:35:01;103300;;;-2.6;78
61571;BME280;47463;49.884;10.010;2023-01-29T01:40:01;103300;;;-2.6;78
61571;BME280;47463;49.884;10.010;2023-01-29T01:45:01;103290.00000000001;;;-2.6;78
61571;BME280;47463;49.884;10.010;2023-01-29T01:50:02;103300;;;-2.6;79
61571;BME280;47463;49.884;10.010;2023-01-29T01:55:01;103290.00000000001;;;-2.6;78
61571;BME280;47463;49.884;10.010;2023-01-29T02:00:03;103300;;;-2.6;79
61571;BME280;47463;49.884;10.010;2023-01-29T02:05:01;103290.00000000001;;;-2.6;79
61571;BME280;47463;49.884;10.010;2023-01-29T02:10:02;103290.00000000001;;;-2.7;78
61571;BME280;47463;49.884;10.010;2023-01-29T02:15:01;103290.00000000001;;;-2.6;79
61571;BME280;47463;49.884;10.010;2023-01-29T02:20:02;103290.00000000001;;;-2.7;79
61571;BME280;47463;49.884;10.010;2023-01-29T02:25:03;103290.00000000001;;;-2.7;79
61571;BME280;47463;49.884;10.010;2023-01-29T02:30:02;103290.00000000001;;;-2.7;79
61571;BME280;47463;49.884;10.010;2023-01-29T02:35:09;103270;;;-2.7;79
61571;BME280;47463;49.884;10.010;2023-01-29T02:40:04;103270;;;-2.7;79
61571;BME280;47463;49.884;10.010;2023-01-29T02:45:03;103259.99999999999;;;-2.7;78
61571;BME280;47463;49.884;10.010;2023-01-29T02:50:02;103259.99999999999;;;-2.8;79
61571;BME280;47463;49.884;10.010;2023-01-29T02:55:03;103250;;;-2.8;79
61571;BME280;47463;49.884;10.010;2023-01-29T03:00:03;103259.99999999999;;;-2.8;79
61571;BME280;47463;49.884;10.010;2023-01-29T03:05:02;103259.99999999999;;;-2.8;79
61571;BME280;47463;49.884;10.010;2023-01-29T03:10:01;103259.99999999999;;;-2.8;79
61571;BME280;47463;49.884;10.010;2023-01-29T03:15:01;103280;;;-2.8;78
61571;BME280;47463;49.884;10.010;2023-01-29T03:20:01;103280;;;-2.8;79
61571;BME280;47463;49.884;10.010;2023-01-29T03:25:01;103270;;;-2.8;80
61571;BME280;47463;49.884;10.010;2023-01-29T03:30:01;103280;;;-2.7;81
61571;BME280;47463;49.884;10.010;2023-01-29T03:35:02;103300;;;-2.7;80
61571;BME280;47463;49.884;10.010;2023-01-29T03:40:01;103300;;;-2.7;80
61571;BME280;47463;49.884;10.010;2023-01-29T03:45:03;103300;;;-2.8;79
61571;BME280;47463;49.884;10.010;2023-01-29T03:50:02;103300;;;-2.8;79
61571;BME280;47463;49.884;10.010;2023-01-29T03:55:02;103300;;;-2.8;79
61571;BME280;47463;49.884;10.010;2023-01-29T04:00:02;103309.99999999999;;;-2.8;79
61571;BME280;47463;49.884;10.010;2023-01-29T04:05:03;103300;;;-2.8;79
61571;BME280;47463;49.884;10.010;2023-01-29T04:10:02;103320;;;-2.8;79
61571;BME280;47463;49.884;10.010;2023-01-29T04:15:01;103320;;;-2.8;79
61571;BME280;47463;49.884;10.010;2023-01-29T04:20:01;103309.99999999999;;;-2.8;79
61571;BME280;47463;49.884;10.010;2023-01-29T04:25:01;103309.99999999999;;;-2.8;80
61571;BME280;47463;49.884;10.010;2023-01-29T04:30:03;103309.99999999999;;;-2.8;81
61571;BME280;47463;49.884;10.010;2023-01-29T04:35:04;103300;;;-2.8;81
61571;BME280;47463;49.884;10.010;2023-01-29T04:40:03;103290.00000000001;;;-2.8;81
61571;BME280;47463;49.884;10.010;2023-01-29T04:45:02;103290.00000000001;;;-2.8;81
61571;BME280;47463;49.884;10.010;2023-01-29T04:50:02;103290.00000000001;;;-2.9;80
61571;BME280;47463;49.884;10.010;2023-01-29T04:55:02;103270;;;-2.9;81
61571;BME280;47463;49.884;10.010;2023-01-29T05:00:02;103270;;;-2.9;80
61571;BME280;47463;49.884;10.010;2023-01-29T05:05:01;103259.99999999999;;;-2.9;80
61571;BME280;47463;49.884;10.010;2023-01-29T05:10:01;103230;;;-2.9;80
61571;BME280;47463;49.884;10.010;2023-01-29T05:15:02;103230;;;-3;81
61571;BME280;47463;49.884;10.010;2023-01-29T05:20:01;103230;;;-3;81
61571;BME280;47463;49.884;10.010;2023-01-29T05:25:01;103250;;;-3;81
61571;BME280;47463;49.884;10.010;2023-01-29T05:30:01;103250;;;-3;81
61571;BME280;47463;49.884;10.010;2023-01-29T05:35:01;103250;;;-3;81
61571;BME280;47463;49.884;10.010;2023-01-29T05:40:01;103250;;;-3.1;81
61571;BME280;47463;49.884;10.010;2023-01-29T05:45:01;103250;;;-3.1;81
61571;BME280;47463;49.884;10.010;2023-01-29T05:50:01;103250;;;-3.1;81
61571;BME280;47463;49.884;10.010;2023-01-29T05:55:01;103259.99999999999;;;-3.1;80
61571;BME280;47463;49.884;10.010;2023-01-29T06:00:01;103259.99999999999;;;-3.1;80
61571;BME280;47463;49.884;10.010;2023-01-29T06:05:01;103270;;;-3.1;80
61571;BME280;47463;49.884;10.010;2023-01-29T06:10:01;103270;;;-3.1;80
61571;BME280;47463;49.884;10.010;2023-01-29T06:15:01;103270;;;-3;80
61571;BME280;47463;49.884;10.010;2023-01-29T06:20:02;103280;;;-3;80
61571;BME280;47463;49.884;10.010;2023-01-29T06:25:01;103280;;;-3;80
61571;BME280;47463;49.884;10.010;2023-01-29T06:30:01;103290.00000000001;;;-3;81
61571;BME280;47463;49.884;10.010;2023-01-29T06:35:01;103290.00000000001;;;-3.1;81
61571;BME280;47463;49.884;10.010;2023-01-29T06:40:01;103270;;;-3.1;81
61571;BME280;47463;49.884;10.010;2023-01-29T06:45:01;103259.99999999999;;;-3.1;81
61571;BME280;47463;49.884;10.010;2023-01-29T06:50:01;103259.99999999999;;;-3.2;82
61571;BME280;47463;49.884;10.010;2023-01-29T06:55:01;103250;;;-3.2;81
61571;BME280;47463;49.884;10.010;2023-01-29T07:00:01;103259.99999999999;;;-3.2;82
61571;BME280;47463;49.884;10.010;2023-01-29T07:05:01;103270;;;-3.1;82
61571;BME280;47463;49.884;10.010;2023-01-29T07:10:01;103270;;;-3.1;82
61571;BME280;47463;49.884;10.010;2023-01-29T07:15:01;103290.00000000001;;;-3.1;82
61571;BME280;47463;49.884;10.010;2023-01-29T07:20:01;103290.00000000001;;;-3.1;82
61571;BME280;47463;49.884;10.010;2023-01-29T07:25:01;103270;;;-3.1;81
61571;BME280;47463;49.884;10.010;2023-01-29T07:30:01;103280;;;-3.1;81
61571;BME280;47463;49.884;10.010;2023-01-29T07:35:01;103280;;;-3.1;81
61571;BME280;47463;49.884;10.010;2023-01-29T07:40:01;103270;;;-3.1;82
61571;BME280;47463;49.884;10.010;2023-01-29T07:45:01;103259.99999999999;;;-3;81
61571;BME280;47463;49.884;10.010;2023-01-29T07:50:01;103270;;;-3;82
61571;BME280;47463;49.884;10.010;2023-01-29T07:55:01;103280;;;-2.9;81
61571;BME280;47463;49.884;10.010;2023-01-29T08:00:01;103270;;;-2.9;81
61571;BME280;47463;49.884;10.010;2023-01-29T08:05:01;103280;;;-2.8;81
61571;BME280;47463;49.884;10.010;2023-01-29T08:10:01;103280;;;-2.7;81
61571;BME280;47463;49.884;10.010;2023-01-29T08:15:01;103290.00000000001;;;-2.6;81
61571;BME280;47463;49.884;10.010;2023-01-29T08:20:01;103300;;;-2.5;80
61571;BME280;47463;49.884;10.010;2023-01-29T08:25:01;103320;;;-2.6;79
61571;BME280;47463;49.884;10.010;2023-01-29T08:30:01;103320;;;-2.6;80
61571;BME280;47463;49.884;10.010;2023-01-29T08:35:01;103320;;;-2.5;80
61571;BME280;47463;49.884;10.010;2023-01-29T08:40:01;103340.00000000001;;;-2.4;80
61571;BME280;47463;49.884;10.010;2023-01-29T08:45:01;103340.00000000001;;;-2.4;79
61571;BME280;47463;49.884;10.010;2023-01-29T08:50:01;103340.00000000001;;;-2.4;79
61571;BME280;47463;49.884;10.010;2023-01-29T08:55:01;103330;;;-2.4;79
61571;BME280;47463;49.884;10.010;2023-01-29T09:00:01;103309.99999999999;;;-2.5;79
61571;BME280;47463;49.884;10.010;2023-01-29T09:05:01;103300;;;-2.5;79
61571;BME280;47463;49.884;10.010;2023-01-29T09:10:01;103300;;;-2.3;79
61571;BME280;47463;49.884;10.010;2023-01-29T09:15:01;103270;;;-2.3;79
61571;BME280;47463;49.884;10.010;2023-01-29T09:20:01;103280;;;-2.1;79
61571;BME280;47463;49.884;10.010;2023-01-29T09:25:01;103280;;;-2.2;79
61571;BME280;47463;49.884;10.010;2023-01-29T09:30:01;103280;;;-2.2;78
61571;BME280;47463;49.884;10.010;2023-01-29T09:35:01;103290.00000000001;;;-2;78
61571;BME280;47463;49.884;10.010;2023-01-29T09:40:01;103290.00000000001;;;-2;78
61571;BME280;47463;49.884;10.010;2023-01-29T09:45:02;103280;;;-2;78
61571;BME280;47463;49.884;10.010;2023-01-29T09:50:02;103300;;;-2;78
61571;BME280;47463;49.884;10.010;2023-01-29T09:55:01;103320;;;-1.9;77
61571;BME280;47463;49.884;10.010;2023-01-29T10:00:01;103340.00000000001;;;-1.8;77
61571;BME280;47463;49.884;10.010;2023-01-29T10:05:05;103350;;;-1.8;77
61571;BME280;47463;49.884;10.010;2023-01-29T10:10:04;103380;;;-1.8;77
61571;BME280;47463;49.884;10.010;2023-01-29T10:15:02;103380;;;-1.7;77
61571;BME280;47463;49.884;10.010;2023-01-29T10:20:03;103359.99999999999;;;-1.8;76
61571;BME280;47463;49.884;10.010;2023-01-29T10:25:02;103340.00000000001;;;-1.9;77
61571;BME280;47463;49.884;10.010;2023-01-29T10:30:01;103309.99999999999;;;-1.9;77
61571;BME280;47463;49.884;10.010;2023-01-29T10:35:02;103290.00000000001;;;-1.9;77
61571;BME280;47463;49.884;10.010;2023-01-29T10:40:01;103270;;;-1.7;77
61571;BME280;47463;49.884;10.010;2023-01-29T10:45:05;103280;;;-1.8;77
61571;BME280;47463;49.884;10.010;2023-01-29T10:50:07;103270;;;-1.7;77
61571;BME280;47463;49.884;10.010;2023-01-29T10:55:03;103270;;;-1.7;76
61571;BME280;47463;49.884;10.010;2023-01-29T11:00:03;103250;;;-1.6;76
61571;BME280;47463;49.884;10.010;2023-01-29T11:05:01;103240.00000000001;;;-1.3;76
61571;BME280;47463;49.884;10.010;2023-01-29T11:10:02;103220;;;-1.3;76
61571;BME280;47463;49.884;10.010;2023-01-29T11:15:02;103220;;;-1.1;75
61571;BME280;47463;49.884;10.010;2023-01-29T11:20:01;103230;;;-1.1;74
61571;BME280;47463;49.884;10.010;2023-01-29T11:25:09;103209.99999999999;;;-1.3;75
61571;BME280;47463;49.884;10.010;2023-01-29T11:30:01;103200;;;-1.1;75
61571;BME280;47463;49.884;10.010;2023-01-29T11:35:02;103200;;;-0.9;75
61571;BME280;47463;49.884;10.010;2023-01-29T11:40:01;103180;;;-1.2;75
61571;BME280;47463;49.884;10.010;2023-01-29T11:45:01;103159.99999999999;;;-1.4;77
61571;BME280;47463;49.884;10.010;2023-01-29T11:50:01;103150;;;-1.6;76
61571;BME280;47463;49.884;10.010;2023-01-29T11:55:01;103140.00000000001;;;-1.6;77
61571;BME280;47463;49.884;10.010;2023-01-29T12:00:01;103130;;;-1.4;77
61571;BME280;47463;49.884;10.010;2023-01-29T12:05:02;103130;;;-1.3;76
61571;BME280;47463;49.884;10.010;2023-01-29T12:10:01;103130;;;-1.2;76
61571;BME280;47463;49.884;10.010;2023-01-29T12:15:02;103130;;;-1.1;77
61571;BME280;47463;49.884;10.010;2023-01-29T12:20:02;103120;;;-1;76
61571;BME280;47463;49.884;10.010;2023-01-29T12:25:02;103120;;;-1;75
61571;BME280;47463;49.884;10.010;2023-01-29T12:30:02;103120;;;-0.9;75
61571;BME280;47463;49.884;10.010;2023-01-29T12:35:02;103109.99999999999;;;-1;75
61571;BME280;47463;49.884;10.010;2023-01-29T12:40:01;103090.00000000001;;;-1;75
61571;BME280;47463;49.884;10.010;2023-01-29T12:45:01;103100;;;-0.6;75
61571;BME280;47463;49.884;10.010;2023-01-29T12:50:02;103080;;;-0.9;75
61571;BME280;47463;49.884;10.010;2023-01-29T12:55:02;103080;;;-0.9;76
61571;BME280;47463;49.884;10.010;2023-01-29T13:00:03;103059.99999999999;;;-0.7;75
61571;BME280;47463;49.884;10.010;2023-01-29T13:05:02;103070;;;-0.8;76
61571;BME280;47463;49.884;10.010;2023-01-29T13:10:03;103040.00000000001;;;-0.9;76
61571;BME280;47463;49.884;10.010;2023-01-29T13:15:02;103020;;;-0.3;75
61571;BME280;47463;49.884;10.010;2023-01-29T13:20:02;103040.00000000001;;;-0.5;74
61571;BME280;47463;49.884;10.010;2023-01-29T13:25:01;103040.00000000001;;;-0.4;76
61571;BME280;47463;49.884;10.010;2023-01-29T13:30:01;103020;;;-0.5;75
61571;BME280;47463;49.884;10.010;2023-01-29T13:35:01;103020;;;-0.2;75
61571;BME280;47463;49.884;10.010;2023-01-29T13:40:02;103020;;;0.1;73
61571;BME280;47463;49.884;10.010;2023-01-29T13:45:01;103020;;;0.2;73
61571;BME280;47463;49.884;10.010;2023-01-29T13:50:01;103050;;;0.6;72
61571;BME280;47463;49.884;10.010;2023-01-29T13:55:01;103040.00000000001;;;0.6;71
61571;BME280;47463;49.884;10.010;2023-01-29T14:00:01;103020;;;0.4;72
61571;BME280;47463;49.884;10.010;2023-01-29T14:05:35;103020;;;0.1;73
61571;BME280;47463;49.884;10.010;2023-01-29T14:10:05;103000;;;0.1;73
61571;BME280;47463;49.884;10.010;2023-01-29T14:15:04;102990.00000000001;;;0.2;74
61571;BME280;47463;49.884;10.010;2023-01-29T14:20:01;102990.00000000001;;;0.1;73
61571;BME280;47463;49.884;10.010;2023-01-29T14:25:02;102970;;;-0.2;73
61571;BME280;47463;49.884;10.010;2023-01-29T14:30:01;102970;;;-0.2;74
61571;BME280;47463;49.884;10.010;2023-01-29T14:35:01;102970;;;-0.2;74
61571;BME280;47463;49.884;10.010;2023-01-29T14:40:07;102959.99999999999;;;-0.3;74
61571;BME280;47463;49.884;10.010;2023-01-29T14:45:06;102950;;;-0.2;75
61571;BME280;47463;49.884;10.010;2023-01-29T14:50:02;102959.99999999999;;;-0.2;75
61571;BME280;47463;49.884;10.010;2023-01-29T14:55:02;102940.00000000001;;;-0.1;74
61571;BME280;47463;49.884;10.010;2023-01-29T15:00:01;102940.00000000001;;;-0.1;75
61571;BME280;47463;49.884;10.010;2023-01-29T15:05:01;102940.00000000001;;;-0.1;76
61571;BME280;47463;49.884;10.010;2023-01-29T15:10:03;102950;;;-0.1;76
61571;BME280;47463;49.884;10.010;2023-01-29T15:15:02;102940.00000000001;;;-0.1;75
61571;BME280;47463;49.884;10.010;2023-01-29T15:20:01;102940.00000000001;;;-0.1;74
61571;BME280;47463;49.884;10.010;2023-01-29T15:25:02;102940.00000000001;;;-0.1;75
61571;BME280;47463;49.884;10.010;2023-01-29T15:30:01;102940.00000000001;;;-0.1;75
61571;BME280;47463;49.884;10.010;2023-01-29T15:35:04;102930;;;-0.2;76
61571;BME280;47463;49.884;10.010;2023-01-29T15:40:01;102930;;;-0.3;77
61571;BME280;47463;49.884;10.010;2023-01-29T15:45:01;102909.99999999999;;;-0.4;77
61571;BME280;47463;49.884;10.010;2023-01-29T15:50:01;102909.99999999999;;;-0.4;77
61571;BME280;47463;49.884;10.010;2023-01-29T15:55:02;102909.99999999999;;;-0.5;77
61571;BME280;47463;49.884;10.010;2023-01-29T16:00:01;102909.99999999999;;;-0.6;78
61571;BME280;47463;49.884;10.010;2023-01-29T16:05:01;102920;;;-0.6;78
61571;BME280;47463;49.884;10.010;2023-01-29T16:10:01;102909.99999999999;;;-0.7;79
61571;BME280;47463;49.884;10.010;2023-01-29T16:15:01;102909.99999999999;;;-0.8;79
61571;BME280;47463;49.884;10.010;2023-01-29T16:20:02;102909.99999999999;;;-0.8;79
61571;BME280;47463;49.884;10.010;2023-01-29T16:25:01;102909.99999999999;;;-1;80
61571;BME280;47463;49.884;10.010;2023-01-29T16:30:01;102909.99999999999;;;-1.1;81
61571;BME280;47463;49.884;10.010;2023-01-29T16:35:01;102909.99999999999;;;-1.2;81
61571;BME280;47463;49.884;10.010;2023-01-29T16:40:09;102900;;;-1.2;81
61571;BME280;47463;49.884;10.010;2023-01-29T16:45:01;102900;;;-1.2;82
61571;BME280;47463;49.884;10.010;2023-01-29T16:50:02;102890.00000000001;;;-1.3;82
61571;BME280;47463;49.884;10.010;2023-01-29T16:55:13;102890.00000000001;;;-1.3;83
61571;BME280;47463;49.884;10.010;2023-01-29T17:00:02;102880;;;-1.4;83
61571;BME280;47463;49.884;10.010;2023-01-29T17:05:02;102880;;;-1.5;84
61571;BME280;47463;49.884;10.010;2023-01-29T17:10:02;102880;;;-1.6;84
61571;BME280;47463;49.884;10.010;2023-01-29T17:15:01;102890.00000000001;;;-1.7;84
61571;BME280;47463;49.884;10.010;2023-01-29T17:20:05;102890.00000000001;;;-1.7;84
61571;BME280;47463;49.884;10.010;2023-01-29T17:25:01;102890.00000000001;;;-1.7;84
61571;BME280;47463;49.884;10.010;2023-01-29T17:30:01;102890.00000000001;;;-1.6;84
61571;BME280;47463;49.884;10.010;2023-01-29T17:35:01;102880;;;-1.8;84
61571;BME280;47463;49.884;10.010;2023-01-29T17:40:01;102880;;;-1.8;84
61571;BME280;47463;49.884;10.010;2023-01-29T17:45:01;102900;;;-1.8;84
61571;BME280;47463;49.884;10.010;2023-01-29T17:50:01;102900;;;-1.8;84
61571;BME280;47463;49.884;10.010;2023-01-29T17:55:01;102909.99999999999;;;-1.8;84
61571;BME280;47463;49.884;10.010;2023-01-29T18:00:01;102920;;;-1.8;84
61571;BME280;47463;49.884;10.010;2023-01-29T18:05:01;102930;;;-2;84
61571;BME280;47463;49.884;10.010;2023-01-29T18:10:01;102940.00000000001;;;-2.2;85
61571;BME280;47463;49.884;10.010;2023-01-29T18:15:01;102940.00000000001;;;-2.3;85
61571;BME280;47463;49.884;10.010;2023-01-29T18:20:01;102930;;;-2.4;85
61571;BME280;47463;49.884;10.010;2023-01-29T18:25:01;102930;;;-2.4;85
61571;BME280;47463;49.884;10.010;2023-01-29T18:30:01;102920;;;-2.5;86
61571;BME280;47463;49.884;10.010;2023-01-29T18:35:01;102920;;;-2.8;87
61571;BME280;47463;49.884;10.010;2023-01-29T18:40:01;102920;;;-3.1;88
61571;BME280;47463;49.884;10.010;2023-01-29T18:45:01;102920;;;-3.1;88
61571;BME280;47463;49.884;10.010;2023-01-29T18:50:01;102920;;;-3.1;89
61571;BME280;47463;49.884;10.010;2023-01-29T18:55:01;102920;;;-2.8;87
61571;BME280;47463;49.884;10.010;2023-01-29T19:00:01;102909.99999999999;;;-2.8;87
61571;BME280;47463;49.884;10.010;2023-01-29T19:05:01;102890.00000000001;;;-2.6;88
61571;BME280;47463;49.884;10.010;2023-01-29T19:10:01;102890.00000000001;;;-2.5;87
61571;BME280;47463;49.884;10.010;2023-01-29T19:15:01;102880;;;-2.7;88
61571;BME280;47463;49.884;10.010;2023-01-29T19:20:01;102880;;;-2.8;88
61571;BME280;47463;49.884;10.010;2023-01-29T19:25:01;102870;;;-2.8;88
61571;BME280;47463;49.884;10.010;2023-01-29T19:30:01;102870;;;-2.7;88
61571;BME280;47463;49.884;10.010;2023-01-29T19:35:01;102859.99999999999;;;-2.7;87
61571;BME280;47463;49.884;10.010;2023-01-29T19:40:01;102859.99999999999;;;-2.6;87
61571;BME280;47463;49.884;10.010;2023-01-29T19:45:01;102859.99999999999;;;-2.7;87
61571;BME280;47463;49.884;10.010;2023-01-29T19:50:01;102850;;;-2.7;87
61571;BME280;47463;49.884;10.010;2023-01-29T19:55:01;102850;;;-2.8;88
61571;BME280;47463;49.884;10.010;2023-01-29T20:00:01;102840.00000000001;;;-2.9;88
61571;BME280;47463;49.884;10.010;2023-01-29T20:05:01;102840.00000000001;;;-2.9;88
61571;BME280;47463;49.884;10.010;2023-01-29T20:10:01;102820;;;-3;88
61571;BME280;47463;49.884;10.010;2023-01-29T20:15:01;102830;;;-3;88
61571;BME280;47463;49.884;10.010;2023-01-29T20:20:01;102830;;;-3;88
61571;BME280;47463;49.884;10.010;2023-01-29T20:25:01;102840.00000000001;;;-2.9;88
61571;BME280;47463;49.884;10.010;2023-01-29T20:30:01;102840.00000000001;;;-3.1;88
61571;BME280;47463;49.884;10.010;2023-01-29T20:35:01;102850;;;-3.5;89
61571;BME280;47463;49.884;10.010;2023-01-29T20:40:01;102850;;;-3.1;90
61571;BME280;47463;49.884;10.010;2023-01-29T20:45:01;102840.00000000001;;;-3;88
61571;BME280;47463;49.884;10.010;2023-01-29T20:50:01;102840.00000000001;;;-3;88
61571;BME280;47463;49.884;10.010;2023-01-29T20:55:01;102840.00000000001;;;-2.9;88
61571;BME280;47463;49.884;10.010;2023-01-29T21:00:01;102830;;;-2.8;88
61571;BME280;47463;49.884;10.010;2023-01-29T21:05:01;102820;;;-3;89
61571;BME280;47463;49.884;10.010;2023-01-29T21:10:01;102809.99999999999;;;-3.1;90
61571;BME280;47463;49.884;10.010;2023-01-29T21:15:01;102809.99999999999;;;-3.1;90
61571;BME280;47463;49.884;10.010;2023-01-29T21:20:01;102809.99999999999;;;-3.2;90
61571;BME280;47463;49.884;10.010;2023-01-29T21:25:01;102800;;;-3.3;90
61571;BME280;47463;49.884;10.010;2023-01-29T21:30:01;102809.99999999999;;;-3.4;91
61571;BME280;47463;49.884;10.010;2023-01-29T21:35:01;102800;;;-3.6;91
61571;BME280;47463;49.884;10.010;2023-01-29T21:40:01;102790.00000000001;;;-3.6;91
61571;BME280;47463;49.884;10.010;2023-01-29T21:45:01;102800;;;-3.5;91
61571;BME280;47463;49.884;10.010;2023-01-29T21:50:01;102780;;;-3.3;90
61571;BME280;47463;49.884;10.010;2023-01-29T21:55:01;102780;;;-3.3;90
61571;BME280;47463;49.884;10.010;2023-01-29T22:00:01;102770;;;-3.3;91
61571;BME280;47463;49.884;10.010;2023-01-29T22:05:01;102759.99999999999;;;-3.3;91
61571;BME280;47463;49.884;10.010;2023-01-29T22:10:01;102740.00000000001;;;-3.3;91
61571;BME280;47463;49.884;10.010;2023-01-29T22:15:01;102720;;;-3.2;91
61571;BME280;47463;49.884;10.010;2023-01-29T22:20:01;102709.99999999999;;;-3.3;91
61571;BME280;47463;49.884;10.010;2023-01-29T22:25:01;102720;;;-3.4;91
61571;BME280;47463;49.884;10.010;2023-01-29T22:30:01;102690.00000000001;;;-3.3;91
61571;BME280;47463;49.884;10.010;2023-01-29T22:35:01;102680;;;-3.2;91
61571;BME280;47463;49.884;10.010;2023-01-29T22:40:01;102659.99999999999;;;-3.3;91
61571;BME280;47463;49.884;10.010;2023-01-29T22:45:01;102659.99999999999;;;-3.4;91
61571;BME280;47463;49.884;10.010;2023-01-29T22:50:01;102670;;;-3.5;92
61571;BME280;47463;49.884;10.010;2023-01-29T22:55:01;102659.99999999999;;;-3.5;92
61571;BME280;47463;49.884;10.010;2023-01-29T23:00:01;102670;;;-3.3;92
61571;BME280;47463;49.884;10.010;2023-01-29T23:05:01;102659.99999999999;;;-3.2;91
61571;BME280;47463;49.884;10.010;2023-01-29T23:10:01;102630;;;-3.2;91
61571;BME280;47463;49.884;10.010;2023-01-29T23:15:01;102620;;;-3.2;91
61571;BME280;47463;49.884;10.010;2023-01-29T23:20:01;102609.99999999999;;;-3.2;91
61571;BME280;47463;49.884;10.010;2023-01-29T23:25:01;102620;;;-3.2;91
61571;BME280;47463;49.884;10.010;2023-01-29T23:30:01;102609.99999999999;;;-3.2;91
61571;BME280;47463;49.884;10.010;2023-01-29T23:35:01;102609.99999999999;;;-3.2;91
61571;BME280;47463;49.884;10.010;2023-01-29T23:40:01;102609.99999999999;;;-3;91
61571;BME280;47463;49.884;10.010;2023-01-29T23:45:01;102600;;;-2.8;92
61571;BME280;47463;49.884;10.010;2023-01-29T23:50:01;102600;;;-2.5;90
61571;BME280;47463;49.884;10.010;2023-01-29T23:55:01;102580;;;-2.4;90
